Terminal Aerodrome Forecast
Issued by NWS

Home | Current Version | Previous Version | Text Only | Print | Product List | Glossary On
Versions: 1 2 3 4 5 6 7 8 9 10 11 12 13 14 15 16
000
FTUS42 TJSJ 200520
TAFJBQ
TAF
TJBQ 200520Z 2006/2106 12005KT 6SM HZ FEW040
     FM201300 10015KT 6SM HZ FEW040
     FM202300 10010KT P6SM SKC
      AMD NOT SKED TIL 201100=

USA.gov is the U.S. government's official web portal to all federal, state and local government web resources and services.